createdAt,value
2024-01-03T00:00:29.398Z,4.57
2024-01-03T00:03:17.777Z,4.50
2024-01-03T00:06:04.202Z,4.20
2024-01-03T00:08:50.610Z,3.67
2024-01-03T00:11:36.378Z,2.75
2024-01-03T00:14:33.836Z,2.85
2024-01-03T00:17:21.713Z,3.00
2024-01-03T00:20:10.026Z,3.33
2024-01-03T00:22:56.117Z,3.03
2024-01-03T00:25:41.997Z,3.75
2024-01-03T00:28:27.333Z,3.50
2024-01-03T00:31:41.419Z,3.55
2024-01-03T00:34:38.941Z,4.75
2024-01-03T00:37:36.000Z,3.95
2024-01-03T00:40:32.057Z,3.90
2024-01-03T00:43:17.992Z,3.53
2024-01-03T00:46:04.278Z,4.55
2024-01-03T00:48:50.527Z,3.42
2024-01-03T00:51:36.007Z,3.50
2024-01-03T00:54:23.823Z,2.40
2024-01-03T00:57:09.471Z,2.72
2024-01-03T00:59:55.591Z,3.55
2024-01-03T01:02:41.232Z,3.28
2024-01-03T01:05:27.340Z,3.78
2024-01-03T01:08:15.186Z,3.58
2024-01-03T01:11:02.471Z,3.50
2024-01-03T01:13:48.132Z,3.63
2024-01-03T01:16:34.283Z,3.17
2024-01-03T01:19:19.765Z,3.60
2024-01-03T01:22:06.045Z,3.20
2024-01-03T01:24:51.726Z,2.90
2024-01-03T01:27:37.313Z,3.55
2024-01-03T01:30:23.033Z,2.90
2024-01-03T01:33:08.877Z,4.70
2024-01-03T01:35:54.404Z,4.15
2024-01-03T01:38:40.279Z,3.53
2024-01-03T01:41:25.918Z,4.28
2024-01-03T01:44:12.326Z,3.78
2024-01-03T01:46:58.676Z,4.18
2024-01-03T01:49:44.749Z,4.43
2024-01-03T01:52:30.715Z,5.47
2024-01-03T01:55:17.567Z,5.57
2024-01-03T01:58:23.057Z,4.68
2024-01-03T02:01:29.230Z,4.68
2024-01-03T02:07:43.488Z,4.70
2024-01-03T02:10:49.077Z,4.70
2024-01-03T02:13:55.058Z,4.63
2024-01-03T02:17:01.333Z,4.40
2024-01-03T02:20:08.690Z,4.32
2024-01-03T02:23:14.580Z,3.80
2024-01-03T02:26:28.775Z,4.07
2024-01-03T02:29:37.436Z,3.78
2024-01-03T02:32:43.666Z,5.30
2024-01-03T02:35:50.222Z,5.18
2024-01-03T02:38:56.250Z,4.80
2024-01-03T02:42:01.982Z,4.90
2024-01-03T02:45:08.184Z,4.05
2024-01-03T02:48:14.294Z,5.78
2024-01-03T02:51:20.376Z,4.30
2024-01-03T02:54:25.970Z,3.33
2024-01-03T02:57:32.523Z,3.35
2024-01-03T03:00:38.445Z,2.83
2024-01-03T03:03:44.421Z,3.63
2024-01-03T03:06:50.046Z,4.18
2024-01-03T03:09:55.924Z,3.67
2024-01-03T03:13:01.668Z,3.15
2024-01-03T03:16:08.039Z,2.20
2024-01-03T03:19:13.680Z,2.20
2024-01-03T03:22:19.667Z,3.13
2024-01-03T03:25:26.636Z,2.92
2024-01-03T03:28:32.228Z,3.20
2024-01-03T03:31:37.889Z,3.55
2024-01-03T03:34:44.457Z,3.15
2024-01-03T03:37:51.705Z,3.13
2024-01-03T03:40:57.986Z,2.35
2024-01-03T03:44:03.609Z,2.85
2024-01-03T03:47:09.636Z,2.33
2024-01-03T03:50:15.531Z,2.72
2024-01-03T03:53:21.639Z,2.95
2024-01-03T03:56:27.467Z,1.90
2024-01-03T03:59:33.455Z,2.00
2024-01-03T04:02:38.875Z,1.80
2024-01-03T04:05:44.933Z,1.35
2024-01-03T04:20:58.820Z,1.70
2024-01-03T04:23:50.986Z,1.80
2024-01-03T04:26:38.003Z,1.42
2024-01-03T04:29:24.746Z,1.60
2024-01-03T04:32:10.571Z,1.90
2024-01-03T04:34:57.465Z,1.40
2024-01-03T04:37:58.468Z,1.60
2024-01-03T04:40:44.230Z,2.30
2024-01-03T04:43:30.611Z,1.90
2024-01-03T04:46:15.944Z,2.65
2024-01-03T04:49:02.085Z,3.00
2024-01-03T04:51:47.813Z,2.15
2024-01-03T04:54:33.511Z,1.90
2024-01-03T04:57:27.162Z,2.33
2024-01-03T05:00:21.962Z,1.60
2024-01-03T05:03:23.756Z,2.17
2024-01-03T05:06:10.467Z,2.33
2024-01-03T05:08:56.272Z,1.83
2024-01-03T05:11:42.544Z,1.80
2024-01-03T05:14:29.139Z,1.80
2024-01-03T05:17:15.325Z,1.63
2024-01-03T05:20:01.457Z,1.67
2024-01-03T05:22:47.270Z,1.92
2024-01-03T05:25:33.235Z,1.83
2024-01-03T05:28:19.404Z,1.80
2024-01-03T05:31:25.085Z,1.90
2024-01-03T05:34:27.242Z,2.25
2024-01-03T05:40:08.123Z,2.38
2024-01-03T05:43:13.809Z,2.42
2024-01-03T05:45:59.863Z,2.45
2024-01-03T05:48:45.558Z,3.10
2024-01-03T05:51:31.371Z,2.92
2024-01-03T05:54:16.829Z,2.25
2024-01-03T05:57:04.119Z,2.40
2024-01-03T05:59:50.104Z,2.20
2024-01-03T06:02:35.897Z,2.20
2024-01-03T06:05:22.501Z,2.38
2024-01-03T06:08:23.911Z,2.40
2024-01-03T06:11:14.023Z,2.72
2024-01-03T06:13:59.790Z,4.32
2024-01-03T06:16:45.680Z,4.75
2024-01-03T06:19:32.469Z,6.45
2024-01-03T06:22:20.321Z,8.75
2024-01-03T06:25:22.438Z,8.32
2024-01-03T06:28:07.993Z,5.03
2024-01-03T06:30:54.021Z,3.50
2024-01-03T06:33:39.901Z,3.97
2024-01-03T06:36:41.057Z,4.60
2024-01-03T06:39:26.527Z,6.57
2024-01-03T06:42:19.629Z,4.55
2024-01-03T06:45:21.830Z,4.32
2024-01-03T06:48:08.846Z,3.58
2024-01-03T06:50:54.638Z,3.60
2024-01-03T06:54:00.170Z,2.75
2024-01-03T06:56:46.134Z,3.05
2024-01-03T06:59:59.004Z,5.68
2024-01-03T07:02:44.633Z,5.00
2024-01-03T07:05:30.349Z,4.55
2024-01-03T07:08:24.060Z,3.92
2024-01-03T07:11:10.919Z,3.30
2024-01-03T07:14:16.599Z,3.28
2024-01-03T07:17:02.450Z,3.47
2024-01-03T07:20:03.550Z,4.40
2024-01-03T07:22:52.900Z,3.75
2024-01-03T07:25:39.234Z,3.13
2024-01-03T07:28:25.214Z,3.55
2024-01-03T07:31:12.661Z,3.42
2024-01-03T07:33:58.997Z,3.42
2024-01-03T07:36:45.486Z,2.67
2024-01-03T07:39:31.495Z,3.55
2024-01-03T07:42:16.851Z,4.68
2024-01-03T07:45:03.010Z,2.30
2024-01-03T07:47:48.821Z,4.00
2024-01-03T07:50:54.596Z,2.55
2024-01-03T07:53:55.697Z,5.25
2024-01-03T07:56:41.740Z,6.95
2024-01-03T07:59:27.866Z,4.10
2024-01-03T08:02:13.818Z,4.72
2024-01-03T08:04:59.356Z,4.10
2024-01-03T08:07:45.089Z,4.68
2024-01-03T08:10:30.602Z,9.57
2024-01-03T08:13:16.247Z,8.50
2024-01-03T08:16:02.045Z,8.30
2024-01-03T08:18:48.423Z,9.75
2024-01-03T08:21:34.582Z,8.48
2024-01-03T08:24:20.421Z,4.93
2024-01-03T08:27:05.954Z,4.82
2024-01-03T08:29:53.330Z,3.08
2024-01-03T08:32:41.845Z,3.22
2024-01-03T08:35:27.817Z,4.47
2024-01-03T08:38:14.537Z,4.03
2024-01-03T08:41:00.795Z,4.18
2024-01-03T08:43:47.431Z,4.05
2024-01-03T08:46:47.426Z,4.97
2024-01-03T08:49:33.313Z,3.75
2024-01-03T08:52:19.543Z,4.55
2024-01-03T08:55:21.806Z,6.22
2024-01-03T08:58:08.257Z,5.65
2024-01-03T09:00:55.969Z,4.10
2024-01-03T09:03:50.000Z,3.83
2024-01-03T09:06:37.359Z,3.85
2024-01-03T09:09:23.603Z,4.43
2024-01-03T09:12:09.448Z,4.65
2024-01-03T09:14:55.444Z,5.20
2024-01-03T09:17:44.271Z,5.78
2024-01-03T09:20:30.419Z,5.28
2024-01-03T09:23:15.901Z,4.28
2024-01-03T09:26:05.401Z,4.40
2024-01-03T09:29:14.858Z,4.47
2024-01-03T09:32:00.651Z,4.50
2024-01-03T09:34:46.226Z,2.67
2024-01-03T09:37:33.376Z,3.03
2024-01-03T09:40:19.276Z,3.33
2024-01-03T09:43:06.026Z,2.15
2024-01-03T09:45:52.250Z,3.30
2024-01-03T09:48:42.192Z,2.70
2024-01-03T09:51:27.942Z,2.30
2024-01-03T09:54:14.439Z,2.90
2024-01-03T09:57:19.817Z,4.60
2024-01-03T10:00:07.206Z,2.80
2024-01-03T10:02:52.781Z,2.45
2024-01-03T10:05:39.020Z,1.88
2024-01-03T10:08:24.312Z,1.33
2024-01-03T10:11:23.638Z,2.45
2024-01-03T10:14:21.061Z,1.30
2024-01-03T10:17:11.247Z,2.10
2024-01-03T10:19:57.119Z,2.22
2024-01-03T10:22:50.305Z,1.80
2024-01-03T10:25:52.133Z,2.72
2024-01-03T10:28:38.321Z,1.60
2024-01-03T10:31:42.043Z,1.80
2024-01-03T10:34:28.044Z,3.30
2024-01-03T10:37:13.632Z,2.42
2024-01-03T10:40:01.480Z,1.52
2024-01-03T10:42:50.480Z,1.85
2024-01-03T10:45:36.159Z,1.80
2024-01-03T10:48:21.890Z,2.10
2024-01-03T10:51:13.637Z,1.85
2024-01-03T10:54:00.617Z,2.50
2024-01-03T10:56:52.255Z,2.08
2024-01-03T10:59:46.578Z,2.00
2024-01-03T11:02:38.705Z,2.15
2024-01-03T11:05:39.357Z,3.30
2024-01-03T11:08:55.015Z,2.90
2024-01-03T11:11:40.951Z,2.20
2024-01-03T11:14:27.546Z,2.00
2024-01-03T11:17:20.883Z,2.22
2024-01-03T11:20:08.619Z,2.65
2024-01-03T11:22:57.797Z,2.10
2024-01-03T11:25:52.699Z,2.65
2024-01-03T11:28:45.919Z,2.42
2024-01-03T11:31:56.834Z,2.05
2024-01-03T11:34:50.313Z,2.28
2024-01-03T11:37:58.118Z,1.58
2024-01-03T11:40:51.357Z,1.98
2024-01-03T11:43:58.021Z,1.70
2024-01-03T11:46:43.541Z,2.70
2024-01-03T11:49:45.325Z,3.22
2024-01-03T11:52:38.162Z,2.70
2024-01-03T11:55:24.997Z,2.35
2024-01-03T11:58:15.089Z,1.95
2024-01-03T12:01:11.166Z,1.75
2024-01-03T12:04:33.554Z,1.20
2024-01-03T12:07:19.554Z,1.85
2024-01-03T12:10:22.739Z,1.60
2024-01-03T12:13:24.384Z,1.40
2024-01-03T12:16:10.160Z,1.15
2024-01-03T12:18:56.280Z,1.27
2024-01-03T12:21:53.150Z,1.42
2024-01-03T12:24:43.624Z,1.15
2024-01-03T12:27:45.654Z,0.98
2024-01-03T12:30:32.057Z,1.70
2024-01-03T12:33:18.248Z,1.65
2024-01-03T12:36:07.049Z,2.20
2024-01-03T12:39:02.293Z,1.35
2024-01-03T12:41:48.231Z,2.05
2024-01-03T12:44:34.422Z,1.77
2024-01-03T12:47:20.336Z,1.20
2024-01-03T12:50:08.995Z,1.13
2024-01-03T12:52:54.409Z,1.48
2024-01-03T12:55:39.830Z,1.48
2024-01-03T12:58:25.485Z,1.58
2024-01-03T13:01:15.090Z,1.10
2024-01-03T13:04:16.783Z,1.27
2024-01-03T13:07:02.701Z,1.08
2024-01-03T13:09:48.586Z,1.17
2024-01-03T13:12:33.994Z,0.90
2024-01-03T13:15:27.571Z,1.38
2024-01-03T13:18:14.150Z,2.55
2024-01-03T13:21:00.329Z,1.38
2024-01-03T13:23:55.050Z,1.08
2024-01-03T13:26:57.780Z,0.90
2024-01-03T13:29:43.280Z,1.10
2024-01-03T13:32:28.994Z,1.08
2024-01-03T13:35:15.002Z,1.23
2024-01-03T13:38:01.045Z,1.17
2024-01-03T13:40:47.819Z,1.40
2024-01-03T13:43:34.505Z,1.40
2024-01-03T13:46:20.690Z,2.35
2024-01-03T13:49:09.572Z,1.40
2024-01-03T13:51:58.143Z,2.30
2024-01-03T13:54:51.614Z,1.98
2024-01-03T13:57:38.168Z,1.40
2024-01-03T14:00:43.792Z,1.30
2024-01-03T14:03:29.548Z,1.70
2024-01-03T14:06:15.762Z,1.60
2024-01-03T14:09:03.889Z,1.05
2024-01-03T14:11:50.490Z,1.40
2024-01-03T14:14:37.539Z,1.45
2024-01-03T14:17:23.367Z,1.65
2024-01-03T14:20:18.809Z,1.85
2024-01-03T14:23:04.836Z,1.90
2024-01-03T14:25:51.022Z,2.72
2024-01-03T14:28:39.478Z,2.30
2024-01-03T14:31:27.240Z,2.55
2024-01-03T14:34:13.082Z,2.17
2024-01-03T14:37:06.662Z,5.75
2024-01-03T14:39:52.699Z,4.03
2024-01-03T14:42:47.515Z,6.57
2024-01-03T14:45:33.435Z,8.45
2024-01-03T14:48:19.560Z,9.52
2024-01-03T14:51:05.833Z,7.28
2024-01-03T14:53:53.581Z,4.70
2024-01-03T14:56:39.650Z,2.40
2024-01-03T14:59:25.539Z,3.95
2024-01-03T15:02:11.377Z,5.95
2024-01-03T15:04:57.195Z,3.85
2024-01-03T15:07:43.496Z,5.32
2024-01-03T15:10:29.209Z,6.53
2024-01-03T15:13:15.302Z,3.80
2024-01-03T15:16:01.512Z,5.30
2024-01-03T15:18:48.072Z,4.05
2024-01-03T15:21:34.722Z,4.78
2024-01-03T15:24:20.388Z,3.88
2024-01-03T15:27:06.798Z,2.85
2024-01-03T15:29:53.395Z,2.70
2024-01-03T15:32:39.165Z,2.72
2024-01-03T15:35:25.348Z,2.90
2024-01-03T15:38:12.097Z,3.15
2024-01-03T15:40:59.986Z,2.60
2024-01-03T15:43:45.912Z,2.97
2024-01-03T15:46:33.382Z,2.72
2024-01-03T15:49:19.683Z,2.65
2024-01-03T15:52:09.216Z,3.08
2024-01-03T15:54:55.401Z,2.50
2024-01-03T15:57:43.175Z,2.53
2024-01-03T16:00:28.921Z,2.10
2024-01-03T16:03:15.056Z,2.03
2024-01-03T16:06:01.501Z,1.77
2024-01-03T16:08:48.465Z,4.25
2024-01-03T16:11:37.067Z,3.15
2024-01-03T16:14:24.655Z,2.00
2024-01-03T16:17:10.360Z,4.57
2024-01-03T16:19:56.003Z,2.13
2024-01-03T16:22:41.780Z,2.20
2024-01-03T16:25:27.959Z,1.70
2024-01-03T16:28:21.556Z,2.13
2024-01-03T16:31:07.587Z,2.75
2024-01-03T16:33:53.639Z,3.35
2024-01-03T16:36:59.296Z,1.67
2024-01-03T16:39:45.084Z,3.05
2024-01-03T16:42:50.707Z,2.28
2024-01-03T16:45:36.496Z,1.70
2024-01-03T16:48:22.476Z,1.73
2024-01-03T16:51:23.904Z,1.05
2024-01-03T16:54:10.345Z,1.98
2024-01-03T16:56:56.811Z,2.15
2024-01-03T16:59:43.083Z,2.28
2024-01-03T17:02:29.115Z,2.10
2024-01-03T17:05:22.924Z,2.50
2024-01-03T17:08:10.598Z,2.58
2024-01-03T17:10:56.452Z,3.10
2024-01-03T17:13:49.779Z,3.78
2024-01-03T17:16:35.732Z,3.20
2024-01-03T17:19:21.796Z,3.95
2024-01-03T17:22:08.160Z,4.10
2024-01-03T17:24:56.012Z,2.63
2024-01-03T17:27:41.739Z,2.45
2024-01-03T17:30:27.876Z,3.35
2024-01-03T17:33:14.771Z,6.10
2024-01-03T17:36:07.226Z,3.80
2024-01-03T17:38:55.101Z,3.75
2024-01-03T17:41:44.786Z,2.83
2024-01-03T17:44:31.218Z,3.00
2024-01-03T17:47:16.772Z,3.20
2024-01-03T17:50:03.549Z,2.83
2024-01-03T17:52:49.792Z,3.88
2024-01-03T17:55:51.901Z,3.10
2024-01-03T17:58:41.188Z,3.20
2024-01-03T18:01:27.265Z,3.10
2024-01-03T18:04:14.699Z,2.95
2024-01-03T18:07:00.450Z,4.00
2024-01-03T18:09:46.190Z,2.95
2024-01-03T18:12:32.164Z,3.08
2024-01-03T18:15:18.390Z,3.35
2024-01-03T18:18:05.515Z,3.15
2024-01-03T18:20:51.536Z,2.88
2024-01-03T18:23:38.205Z,3.35
2024-01-03T18:26:24.826Z,2.83
2024-01-03T18:29:10.872Z,3.15
2024-01-03T18:31:56.661Z,5.10
2024-01-03T18:34:42.641Z,5.75
2024-01-03T18:37:28.626Z,5.03
2024-01-03T18:40:15.915Z,5.78
2024-01-03T18:43:03.969Z,6.05
2024-01-03T18:45:49.983Z,6.03
2024-01-03T18:48:35.705Z,8.95
2024-01-03T18:51:21.785Z,10.85
2024-01-03T18:54:07.884Z,8.40
2024-01-03T18:56:54.012Z,5.72
2024-01-03T18:59:40.603Z,5.25
2024-01-03T19:02:26.731Z,5.65
2024-01-03T19:05:13.433Z,3.95
2024-01-03T19:07:59.050Z,5.15
2024-01-03T19:10:44.876Z,4.43
2024-01-03T19:13:30.630Z,4.10
2024-01-03T19:16:17.463Z,3.70
2024-01-03T19:19:06.564Z,3.88
2024-01-03T19:21:52.773Z,4.05
2024-01-03T19:24:38.432Z,4.07
2024-01-03T19:27:24.812Z,3.53
2024-01-03T19:30:11.819Z,2.85
2024-01-03T19:32:57.692Z,3.55
2024-01-03T19:35:45.337Z,3.63
2024-01-03T19:38:31.841Z,3.20
2024-01-03T19:41:18.649Z,2.58
2024-01-03T19:44:05.709Z,2.30
2024-01-03T19:46:53.037Z,2.70
2024-01-03T19:49:38.594Z,2.25
2024-01-03T19:52:25.361Z,2.30
2024-01-03T19:55:20.082Z,2.45
2024-01-03T19:58:06.645Z,2.03
2024-01-03T20:00:52.393Z,2.67
2024-01-03T20:03:58.149Z,2.90
2024-01-03T20:06:44.674Z,2.90
2024-01-03T20:09:30.836Z,2.95
2024-01-03T20:12:17.056Z,2.67
2024-01-03T20:15:03.309Z,3.47
2024-01-03T20:17:56.539Z,3.58
2024-01-03T20:20:45.470Z,3.00
2024-01-03T20:23:31.116Z,3.17
2024-01-03T20:26:18.122Z,3.17
2024-01-03T20:29:05.266Z,3.10
2024-01-03T20:31:54.268Z,3.25
2024-01-03T20:34:59.975Z,3.67
2024-01-03T20:37:46.218Z,3.03
2024-01-03T20:40:31.680Z,3.13
2024-01-03T20:43:17.323Z,3.10
2024-01-03T20:46:03.219Z,2.45
2024-01-03T20:48:49.532Z,2.70
2024-01-03T20:51:35.340Z,3.33
2024-01-03T20:54:21.134Z,3.00
2024-01-03T20:57:06.845Z,2.30
2024-01-03T20:59:52.748Z,2.20
2024-01-03T21:02:38.267Z,2.45
2024-01-03T21:05:24.647Z,2.35
2024-01-03T21:08:10.217Z,2.42
2024-01-03T21:10:56.001Z,2.35
2024-01-03T21:13:45.070Z,2.45
2024-01-03T21:16:31.493Z,1.98
2024-01-03T21:19:17.526Z,2.65
2024-01-03T21:22:03.692Z,1.90
2024-01-03T21:24:49.479Z,2.30
2024-01-03T21:27:46.434Z,2.20
2024-01-03T21:30:36.608Z,2.22
2024-01-03T21:33:22.434Z,2.17
2024-01-03T21:36:09.778Z,3.13
2024-01-03T21:38:55.845Z,2.40
2024-01-03T21:41:42.345Z,2.85
2024-01-03T21:44:28.591Z,2.55
2024-01-03T21:47:15.395Z,2.40
2024-01-03T21:50:21.432Z,2.20
2024-01-03T21:53:07.122Z,2.50
2024-01-03T21:55:53.766Z,2.05
2024-01-03T21:58:39.434Z,2.13
2024-01-03T22:01:28.674Z,2.17
2024-01-03T22:04:14.411Z,2.50
2024-01-03T22:07:00.262Z,2.22
2024-01-03T22:09:45.898Z,1.50
2024-01-03T22:12:33.047Z,1.52
2024-01-03T22:15:19.969Z,1.77
2024-01-03T22:18:06.172Z,1.50
2024-01-03T22:20:51.748Z,1.00
2024-01-03T22:23:39.799Z,1.00
2024-01-03T22:26:25.755Z,0.57
2024-01-03T22:29:11.899Z,0.68
2024-01-03T22:31:57.853Z,0.80
2024-01-03T22:34:43.803Z,0.70
2024-01-03T22:37:29.295Z,1.10
2024-01-03T22:40:15.496Z,0.70
2024-01-03T22:43:01.485Z,0.93
2024-01-03T22:45:47.103Z,0.70
2024-01-03T22:48:33.028Z,1.15
2024-01-03T22:51:19.086Z,1.05
2024-01-03T22:54:07.778Z,1.02
2024-01-03T22:56:53.954Z,1.40
2024-01-03T22:59:39.519Z,2.67
2024-01-03T23:02:26.644Z,2.40
2024-01-03T23:05:13.609Z,2.25
2024-01-03T23:07:59.292Z,2.28
2024-01-03T23:10:45.197Z,2.53
2024-01-03T23:13:30.780Z,2.13
2024-01-03T23:16:18.412Z,2.15
2024-01-03T23:19:05.374Z,1.70
2024-01-03T23:21:51.244Z,1.45
2024-01-03T23:24:37.182Z,1.85
2024-01-03T23:27:22.928Z,1.58
2024-01-03T23:30:09.117Z,1.70
2024-01-03T23:32:54.668Z,1.70
2024-01-03T23:35:42.654Z,1.70
2024-01-03T23:38:29.191Z,1.58
2024-01-03T23:41:18.711Z,1.70
2024-01-03T23:44:04.242Z,1.70
2024-01-03T23:46:50.303Z,1.58
2024-01-03T23:49:42.239Z,1.55
2024-01-03T23:52:28.378Z,1.58
2024-01-03T23:55:14.181Z,1.77
2024-01-03T23:58:00.466Z,2.10
